createdAt,value
2019-04-22T00:01:05.797Z,3.67
2019-04-22T00:03:43.468Z,4.23
2019-04-22T00:06:34.134Z,3.57
2019-04-22T00:09:02.249Z,3.73
2019-04-22T00:11:38.457Z,3.60
2019-04-22T00:14:01.978Z,3.80
2019-04-22T00:16:47.038Z,3.77
2019-04-22T00:19:19.231Z,4.67
2019-04-22T00:21:40.076Z,3.77
2019-04-22T00:24:12.135Z,3.50
2019-04-22T00:26:44.401Z,4.70
2019-04-22T00:29:39.251Z,4.17
2019-04-22T00:31:45.935Z,4.47
2019-04-22T00:34:24.074Z,4.77
2019-04-22T00:36:58.157Z,4.43
2019-04-22T00:39:26.974Z,5.10
2019-04-22T00:41:57.051Z,5.03
2019-04-22T00:44:33.325Z,4.50
2019-04-22T00:47:00.664Z,5.10
2019-04-22T00:52:03.650Z,4.43
2019-04-22T00:54:42.217Z,4.33
2019-04-22T00:57:01.443Z,4.10
2019-04-22T00:59:29.825Z,3.90
2019-04-22T01:02:07.073Z,3.77
2019-04-22T01:04:40.964Z,3.70
2019-04-22T01:07:09.130Z,4.37
2019-04-22T01:09:40.088Z,4.37
2019-04-22T01:12:17.564Z,4.50
2019-04-22T01:14:41.437Z,4.23
2019-04-22T01:17:12.032Z,4.13
2019-04-22T01:19:50.962Z,4.47
2019-04-22T01:22:17.572Z,3.57
2019-04-22T01:24:48.503Z,4.40
2019-04-22T01:27:11.489Z,4.57
2019-04-22T01:29:41.018Z,4.20
2019-04-22T01:32:00.385Z,4.90
2019-04-22T01:34:49.298Z,5.07
2019-04-22T01:37:20.316Z,4.80
2019-04-22T01:40:00.182Z,4.83
2019-04-22T01:42:32.748Z,4.77
2019-04-22T01:45:02.628Z,5.17
2019-04-22T01:47:32.798Z,5.07
2019-04-22T01:50:03.891Z,5.47
2019-04-22T01:52:29.462Z,6.20
2019-04-22T01:55:10.390Z,6.33
2019-04-22T01:57:37.240Z,6.20
2019-04-22T02:00:03.679Z,6.53
2019-04-22T02:02:35.410Z,7.37
2019-04-22T02:05:15.782Z,6.67
2019-04-22T02:07:42.385Z,6.90
2019-04-22T02:10:11.149Z,7.03
2019-04-22T02:15:12.285Z,7.37
2019-04-22T02:17:53.452Z,6.40
2019-04-22T02:20:32.989Z,7.17
2019-04-22T02:23:42.846Z,7.90
2019-04-22T02:25:56.440Z,7.60
2019-04-22T02:28:32.317Z,7.60
2019-04-22T02:36:20.162Z,8.13
2019-04-22T02:43:55.424Z,9.17
2019-04-22T02:47:14.392Z,8.13
2019-04-22T02:51:12.650Z,8.23
2019-04-22T02:58:55.107Z,8.30
2019-04-22T03:01:23.469Z,8.40
2019-04-22T03:08:46.007Z,8.43
2019-04-22T03:11:19.172Z,7.83
2019-04-22T03:16:27.121Z,9.17
2019-04-22T03:18:55.039Z,9.93
2019-04-22T03:21:17.472Z,8.77
2019-04-22T03:26:27.459Z,9.00
2019-04-22T03:29:18.029Z,8.50
2019-04-22T03:42:05.852Z,8.47
2019-04-22T03:47:11.626Z,9.07
2019-04-22T03:54:43.705Z,8.60
2019-04-22T03:57:31.220Z,9.23
2019-04-22T03:59:41.553Z,8.97
2019-04-22T04:02:16.200Z,9.27
2019-04-22T04:07:40.507Z,9.57
2019-04-22T04:12:28.675Z,10.20
2019-04-22T04:17:39.811Z,9.93
2019-04-22T04:27:53.609Z,9.33
2019-04-22T04:42:46.359Z,10.70
2019-04-22T04:45:40.938Z,10.30
2019-04-22T04:53:01.137Z,10.50
2019-04-22T04:55:25.875Z,11.67
2019-04-22T04:58:13.073Z,11.40
2019-04-22T05:00:39.435Z,11.57
2019-04-22T05:07:55.346Z,12.57
2019-04-22T05:10:49.267Z,13.13
2019-04-22T05:12:56.792Z,11.83
2019-04-22T05:15:35.093Z,12.33
2019-04-22T05:20:42.651Z,12.77
2019-04-22T05:22:56.134Z,12.60
2019-04-22T05:27:57.393Z,12.63
2019-04-22T05:33:01.858Z,14.70
2019-04-22T05:35:35.861Z,15.77
2019-04-22T05:40:28.343Z,14.90
2019-04-22T05:43:02.513Z,13.90
2019-04-22T05:45:31.504Z,15.57
2019-04-22T05:48:30.572Z,15.93
2019-04-22T05:50:59.333Z,17.70
2019-04-22T05:53:25.500Z,19.10
2019-04-22T05:56:01.826Z,17.17
2019-04-22T05:58:39.701Z,16.00
2019-04-22T06:03:49.323Z,18.00
2019-04-22T06:06:18.184Z,21.17
2019-04-22T06:08:48.698Z,15.83
2019-04-22T06:11:22.918Z,23.53
2019-04-22T06:13:39.056Z,17.33
2019-04-22T06:16:29.190Z,15.30
2019-04-22T06:19:00.961Z,21.37
2019-04-22T06:21:28.092Z,17.20
2019-04-22T06:24:08.882Z,17.37
2019-04-22T06:26:39.488Z,18.33
2019-04-22T06:29:06.997Z,18.27
2019-04-22T06:31:51.484Z,17.70
2019-04-22T06:34:03.470Z,19.43
2019-04-22T06:36:37.445Z,20.07
2019-04-22T06:39:10.322Z,17.70
2019-04-22T06:41:35.340Z,18.07
2019-04-22T06:44:12.978Z,16.80
2019-04-22T06:46:39.973Z,16.30
2019-04-22T06:49:10.426Z,19.03
2019-04-22T06:51:37.090Z,15.63
2019-04-22T06:54:14.126Z,17.80
2019-04-22T06:56:42.803Z,16.03
2019-04-22T06:59:15.963Z,14.80
2019-04-22T07:01:42.435Z,15.47
2019-04-22T07:04:09.468Z,15.73
2019-04-22T07:06:49.909Z,16.13
2019-04-22T07:09:34.993Z,16.10
2019-04-22T07:11:43.202Z,17.93
2019-04-22T07:14:16.318Z,14.10
2019-04-22T07:16:54.525Z,16.67
2019-04-22T07:19:21.867Z,16.23
2019-04-22T07:21:50.602Z,18.13
2019-04-22T07:24:34.551Z,17.77
2019-04-22T07:27:01.902Z,13.97
2019-04-22T07:29:26.635Z,13.13
2019-04-22T07:34:37.175Z,13.10
2019-04-22T07:37:09.465Z,13.37
2019-04-22T07:39:30.802Z,12.77
2019-04-22T07:42:05.245Z,10.40
2019-04-22T07:47:15.244Z,10.70
2019-04-22T07:49:39.457Z,10.67
2019-04-22T07:52:05.086Z,10.50
2019-04-22T07:54:41.397Z,11.80
2019-04-22T07:57:15.369Z,9.87
2019-04-22T07:59:40.405Z,8.53
2019-04-22T08:02:12.798Z,11.20
2019-04-22T08:04:55.786Z,10.13
2019-04-22T08:07:18.310Z,12.87
2019-04-22T08:09:53.987Z,13.50
2019-04-22T08:12:12.964Z,12.90
2019-04-22T08:14:50.488Z,13.27
2019-04-22T08:17:38.906Z,14.13
2019-04-22T08:19:50.493Z,15.70
2019-04-22T08:22:17.119Z,13.87
2019-04-22T08:27:18.944Z,13.83
2019-04-22T08:29:58.613Z,14.13
2019-04-22T08:32:28.588Z,14.30
2019-04-22T08:34:59.974Z,15.10
2019-04-22T08:40:04.543Z,13.07
2019-04-22T08:42:41.307Z,12.43
2019-04-22T08:47:31.007Z,12.50
2019-04-22T08:50:18.518Z,13.50
2019-04-22T08:52:35.314Z,13.50
2019-04-22T08:55:04.375Z,13.27
2019-04-22T08:57:57.052Z,13.13
2019-04-22T09:00:06.782Z,13.03
2019-04-22T09:02:38.681Z,13.40
2019-04-22T09:05:12.033Z,14.37
2019-04-22T09:07:36.821Z,13.53
2019-04-22T09:10:10.244Z,13.50
2019-04-22T09:12:51.844Z,13.13
2019-04-22T09:15:10.853Z,13.00
2019-04-22T09:17:47.300Z,13.77
2019-04-22T09:20:13.121Z,12.83
2019-04-22T09:22:48.406Z,13.47
2019-04-22T09:25:22.205Z,14.20
2019-04-22T09:27:52.575Z,15.93
2019-04-22T09:30:20.412Z,14.30
2019-04-22T09:32:54.144Z,15.23
2019-04-22T09:35:30.638Z,14.93
2019-04-22T09:37:58.854Z,16.20
2019-04-22T09:40:21.747Z,16.07
2019-04-22T09:43:09.918Z,15.03
2019-04-22T09:45:21.715Z,15.07
2019-04-22T09:50:32.112Z,14.33
2019-04-22T09:55:32.833Z,16.70
2019-04-22T09:57:55.666Z,15.43
2019-04-22T10:00:38.084Z,15.07
2019-04-22T10:03:11.501Z,15.67
2019-04-22T10:05:32.859Z,16.13
2019-04-22T10:08:07.655Z,14.73
2019-04-22T10:10:51.611Z,13.30
2019-04-22T10:13:14.103Z,14.17
2019-04-22T10:15:43.963Z,13.20
2019-04-22T10:18:14.674Z,13.93
2019-04-22T10:20:51.956Z,13.50
2019-04-22T10:23:17.769Z,16.87
2019-04-22T10:25:45.668Z,16.50
2019-04-22T10:28:15.569Z,15.33
2019-04-22T10:33:34.202Z,14.33
2019-04-22T10:35:43.461Z,16.10
2019-04-22T10:38:14.328Z,14.97
2019-04-22T10:40:44.847Z,13.67
2019-04-22T10:43:15.014Z,14.53
2019-04-22T10:45:46.032Z,12.63
2019-04-22T10:48:16.491Z,11.90
2019-04-22T10:50:48.754Z,23.13
2019-04-22T10:53:19.729Z,13.43
2019-04-22T10:55:51.290Z,13.97
2019-04-22T10:58:20.965Z,14.47
2019-04-22T11:00:52.103Z,18.47
2019-04-22T11:03:22.480Z,12.17
2019-04-22T11:05:53.940Z,10.37
2019-04-22T11:08:32.692Z,10.17
2019-04-22T11:11:09.407Z,9.67
2019-04-22T11:13:26.132Z,8.90
2019-04-22T11:15:55.950Z,10.47
2019-04-22T11:18:25.459Z,11.40
2019-04-22T11:20:55.727Z,10.97
2019-04-22T11:23:26.922Z,8.50
2019-04-22T11:25:57.621Z,9.70
2019-04-22T11:28:27.774Z,9.13
2019-04-22T11:30:58.704Z,9.27
2019-04-22T11:33:28.304Z,9.27
2019-04-22T11:35:57.639Z,10.10
2019-04-22T11:38:27.088Z,10.20
2019-04-22T11:40:58.176Z,9.40
2019-04-22T11:43:28.486Z,8.83
2019-04-22T11:45:59.460Z,9.57
2019-04-22T11:48:29.248Z,9.17
2019-04-22T11:51:00.098Z,9.37
2019-04-22T11:53:30.932Z,8.43
2019-04-22T11:56:00.669Z,10.27
2019-04-22T11:58:30.771Z,8.53
2019-04-22T12:01:01.173Z,8.47
2019-04-22T12:03:31.633Z,8.00
2019-04-22T12:06:02.099Z,8.57
2019-04-22T12:08:31.749Z,8.50
2019-04-22T12:11:05.496Z,8.67
2019-04-22T12:13:33.698Z,7.90
2019-04-22T12:16:03.407Z,9.17
2019-04-22T12:18:33.315Z,8.53
2019-04-22T12:21:03.567Z,8.67
2019-04-22T12:23:34.833Z,7.50
2019-04-22T12:26:10.869Z,8.43
2019-04-22T12:28:37.059Z,9.03
2019-04-22T12:31:06.799Z,8.70
2019-04-22T12:33:37.128Z,9.30
2019-04-22T12:36:10.688Z,8.20
2019-04-22T12:38:41.690Z,7.60
2019-04-22T12:41:12.209Z,7.70
2019-04-22T12:43:43.108Z,6.77
2019-04-22T12:46:14.226Z,7.57
2019-04-22T12:48:43.712Z,8.57
2019-04-22T12:51:13.382Z,8.03
2019-04-22T12:53:45.846Z,7.80
2019-04-22T12:56:15.433Z,7.27
2019-04-22T12:58:45.855Z,7.00
2019-04-22T13:01:16.947Z,8.40
2019-04-22T13:03:46.638Z,7.60
2019-04-22T13:06:17.474Z,7.80
2019-04-22T13:08:47.714Z,7.13
2019-04-22T13:11:20.825Z,7.17
2019-04-22T13:13:49.344Z,7.17
2019-04-22T13:16:19.024Z,7.17
2019-04-22T13:18:55.653Z,6.70
2019-04-22T13:21:20.507Z,7.67
2019-04-22T13:23:50.775Z,6.50
2019-04-22T13:26:21.158Z,6.87
2019-04-22T13:28:51.475Z,5.80
2019-04-22T13:31:22.589Z,5.97
2019-04-22T13:33:55.242Z,6.23
2019-04-22T13:36:25.568Z,6.40
2019-04-22T13:38:55.373Z,6.80
2019-04-22T13:41:35.690Z,6.57
2019-04-22T13:43:56.076Z,5.80
2019-04-22T13:46:26.057Z,5.43
2019-04-22T13:49:28.961Z,5.57
2019-04-22T13:56:48.031Z,5.67
2019-04-22T13:59:10.269Z,5.30
2019-04-22T14:02:00.809Z,5.10
2019-04-22T14:04:34.663Z,5.10
2019-04-22T14:07:05.146Z,5.00
2019-04-22T14:09:35.956Z,4.47
2019-04-22T14:12:07.705Z,5.13
2019-04-22T14:14:39.209Z,5.23
2019-04-22T14:17:09.015Z,4.83
2019-04-22T14:19:39.152Z,5.33
2019-04-22T14:22:09.635Z,5.17
2019-04-22T14:24:40.502Z,5.47
2019-04-22T14:27:22.932Z,5.60
2019-04-22T14:29:41.928Z,4.53
2019-04-22T14:32:18.862Z,5.17
2019-04-22T14:34:42.843Z,4.93
2019-04-22T14:37:14.122Z,4.20
2019-04-22T14:39:45.828Z,5.00
2019-04-22T14:42:36.552Z,4.80
2019-04-22T14:47:39.401Z,4.97
2019-04-22T14:50:14.044Z,5.70
2019-04-22T14:52:39.584Z,5.30
2019-04-22T14:55:01.857Z,5.27
2019-04-22T14:57:23.254Z,5.17
2019-04-22T14:59:53.670Z,5.20
2019-04-22T15:02:23.741Z,5.30
2019-04-22T15:04:54.238Z,5.30
2019-04-22T15:07:25.187Z,6.87
2019-04-22T15:09:55.735Z,5.43
2019-04-22T15:12:31.009Z,4.67
2019-04-22T15:14:57.645Z,4.90
2019-04-22T15:17:47.213Z,5.40
2019-04-22T15:20:27.752Z,5.03
2019-04-22T15:22:57.300Z,5.33
2019-04-22T15:25:26.596Z,5.03
2019-04-22T15:27:57.346Z,5.40
2019-04-22T15:30:27.742Z,4.93
2019-04-22T15:32:57.387Z,5.40
2019-04-22T15:35:27.229Z,5.63
2019-04-22T15:37:57.255Z,5.17
2019-04-22T15:40:29.056Z,5.43
2019-04-22T15:42:59.151Z,5.20
2019-04-22T15:45:28.793Z,4.97
2019-04-22T15:47:58.211Z,4.90
2019-04-22T15:50:30.695Z,5.17
2019-04-22T15:53:02.501Z,4.87
2019-04-22T15:55:32.536Z,5.10
2019-04-22T15:58:03.743Z,5.43
2019-04-22T16:00:47.971Z,5.07
2019-04-22T16:03:08.390Z,5.53
2019-04-22T16:05:36.403Z,4.80
2019-04-22T16:08:06.678Z,5.13
2019-04-22T16:10:37.777Z,5.30
2019-04-22T16:13:15.064Z,5.30
2019-04-22T16:15:38.711Z,5.42
2019-04-22T16:18:09.397Z,5.70
2019-04-22T16:20:40.412Z,5.70
2019-04-22T16:23:29.785Z,5.50
2019-04-22T16:26:11.769Z,6.43
2019-04-22T16:28:42.943Z,5.67
2019-04-22T16:31:13.492Z,5.53
2019-04-22T16:33:45.441Z,5.67
2019-04-22T16:36:14.147Z,5.83
2019-04-22T16:38:44.751Z,6.00
2019-04-22T16:41:16.935Z,5.93
2019-04-22T16:43:46.829Z,5.83
2019-04-22T16:46:16.258Z,6.07
2019-04-22T16:48:45.602Z,4.83
2019-04-22T16:51:16.161Z,5.80
2019-04-22T16:53:47.375Z,5.63
2019-04-22T16:56:17.123Z,5.67
2019-04-22T16:58:46.722Z,6.10
2019-04-22T17:01:50.515Z,6.33
2019-04-22T17:04:39.169Z,6.77
2019-04-22T17:07:13.988Z,6.03
2019-04-22T17:09:43.912Z,6.40
2019-04-22T17:12:13.948Z,6.90
2019-04-22T17:14:52.080Z,6.67
2019-04-22T17:17:14.951Z,6.80
2019-04-22T17:19:45.139Z,6.93
2019-04-22T17:22:15.665Z,6.63
2019-04-22T17:24:45.793Z,6.93
2019-04-22T17:27:15.224Z,6.83
2019-04-22T17:29:44.524Z,7.37
2019-04-22T17:32:18.908Z,7.47
2019-04-22T17:34:45.445Z,6.80
2019-04-22T17:37:19.223Z,7.83
2019-04-22T17:40:04.344Z,8.00
2019-04-22T17:42:39.502Z,7.80
2019-04-22T17:45:44.969Z,8.10
2019-04-22T17:48:49.303Z,7.60
2019-04-22T17:51:30.026Z,7.33
2019-04-22T17:53:53.248Z,7.33
2019-04-22T17:56:24.032Z,8.63
2019-04-22T17:58:51.552Z,7.67
2019-04-22T18:01:25.238Z,7.30
2019-04-22T18:03:40.930Z,7.27
2019-04-22T18:06:14.185Z,7.83
2019-04-22T18:08:55.167Z,7.90
2019-04-22T18:11:34.075Z,8.00
2019-04-22T18:14:11.667Z,7.87
2019-04-22T18:16:30.598Z,7.70
2019-04-22T18:19:00.737Z,7.90
2019-04-22T18:21:29.224Z,7.97
2019-04-22T18:23:54.186Z,7.87
2019-04-22T18:26:30.631Z,6.90
2019-04-22T18:29:07.423Z,7.80
2019-04-22T18:31:29.782Z,6.97
2019-04-22T18:34:02.082Z,7.70
2019-04-22T18:36:33.327Z,7.47
2019-04-22T18:39:20.439Z,7.90
2019-04-22T18:41:40.686Z,7.27
2019-04-22T18:44:16.947Z,7.80
2019-04-22T18:46:42.717Z,7.57
2019-04-22T18:49:11.221Z,8.83
2019-04-22T18:52:04.561Z,7.77
2019-04-22T18:55:14.659Z,8.00
2019-04-22T18:58:01.056Z,8.47
2019-04-22T19:00:18.006Z,8.93
2019-04-22T19:02:56.942Z,8.67
2019-04-22T19:05:35.894Z,8.50
2019-04-22T19:08:18.372Z,7.90
2019-04-22T19:10:55.709Z,8.10
2019-04-22T19:13:49.087Z,8.47
2019-04-22T19:16:00.530Z,8.57
2019-04-22T19:18:24.527Z,7.83
2019-04-22T19:20:53.786Z,8.20
2019-04-22T19:23:25.680Z,9.03
2019-04-22T19:25:48.653Z,8.90
2019-04-22T19:28:29.401Z,8.07
2019-04-22T19:31:01.634Z,8.63
2019-04-22T19:33:28.973Z,8.57
2019-04-22T19:35:50.402Z,9.33
2019-04-22T19:38:19.222Z,8.17
2019-04-22T19:43:29.260Z,8.70
2019-04-22T19:45:58.933Z,8.80
2019-04-22T19:51:11.411Z,9.17
2019-04-22T19:53:38.826Z,9.30
2019-04-22T19:56:01.470Z,8.97
2019-04-22T19:58:35.974Z,8.67
2019-04-22T20:01:26.947Z,9.47
2019-04-22T20:04:28.371Z,8.97
2019-04-22T20:06:53.515Z,9.13
2019-04-22T20:09:33.377Z,9.87
2019-04-22T20:12:01.131Z,9.80
2019-04-22T20:14:35.847Z,9.43
2019-04-22T20:16:59.831Z,9.07
2019-04-22T20:19:39.822Z,9.83
2019-04-22T20:22:03.373Z,9.77
2019-04-22T20:24:23.620Z,9.37
2019-04-22T20:27:09.344Z,9.40
2019-04-22T20:29:54.151Z,9.13
2019-04-22T20:32:10.900Z,8.87
2019-04-22T20:34:44.796Z,10.30
2019-04-22T20:37:19.317Z,8.03
2019-04-22T20:39:43.783Z,8.70
2019-04-22T20:42:33.621Z,7.70
2019-04-22T20:44:45.949Z,9.10
2019-04-22T20:47:16.612Z,8.23
2019-04-22T20:49:48.901Z,8.53
2019-04-22T20:52:29.531Z,8.57
2019-04-22T20:54:44.961Z,9.13
2019-04-22T20:57:19.192Z,9.33
2019-04-22T20:59:48.474Z,9.17
2019-04-22T21:02:15.176Z,9.57
2019-04-22T21:04:41.455Z,9.27
2019-04-22T21:07:19.582Z,9.47
2019-04-22T21:09:56.933Z,9.23
2019-04-22T21:12:20.274Z,8.87
2019-04-22T21:15:00.171Z,9.87
2019-04-22T21:17:30.503Z,9.70
2019-04-22T21:20:10.062Z,9.97
2019-04-22T21:22:33.795Z,9.37
2019-04-22T21:24:59.357Z,9.03
2019-04-22T21:27:35.481Z,10.60
2019-04-22T21:29:56.337Z,11.10
2019-04-22T21:32:34.367Z,10.53
2019-04-22T21:35:18.551Z,11.30
2019-04-22T21:37:42.964Z,11.00
2019-04-22T21:40:10.522Z,12.47
2019-04-22T21:42:48.627Z,11.70
2019-04-22T21:45:09.748Z,12.13
2019-04-22T21:47:55.405Z,9.93
2019-04-22T21:52:50.922Z,11.20
2019-04-22T21:55:16.085Z,11.43
2019-04-22T21:58:05.169Z,10.47
2019-04-22T22:00:43.216Z,11.77
2019-04-22T22:03:11.725Z,10.87
2019-04-22T22:05:28.922Z,9.87
2019-04-22T22:07:52.107Z,9.87
2019-04-22T22:10:33.886Z,9.73
2019-04-22T22:13:09.705Z,9.20
2019-04-22T22:15:37.554Z,11.33
2019-04-22T22:18:02.238Z,10.10
2019-04-22T22:20:45.332Z,10.43
2019-04-22T22:23:22.550Z,9.93
2019-04-22T22:25:39.443Z,8.63
2019-04-22T22:28:21.903Z,9.03
2019-04-22T22:33:16.764Z,8.83
2019-04-22T22:35:45.627Z,8.60
2019-04-22T22:38:18.126Z,8.67
2019-04-22T22:40:32.327Z,8.83
2019-04-22T22:42:59.901Z,9.20
2019-04-22T22:45:37.442Z,8.77
2019-04-22T22:48:28.414Z,9.37
2019-04-22T22:50:50.829Z,9.50
2019-04-22T22:53:36.970Z,8.60
2019-04-22T22:55:52.129Z,10.10
2019-04-22T22:58:27.738Z,10.07
2019-04-22T23:00:56.234Z,8.60
2019-04-22T23:03:49.509Z,9.43
2019-04-22T23:06:03.198Z,9.50
2019-04-22T23:08:32.945Z,8.60
2019-04-22T23:11:09.086Z,7.60
2019-04-22T23:13:37.170Z,7.93
2019-04-22T23:16:02.026Z,8.97
2019-04-22T23:18:17.840Z,7.53
2019-04-22T23:20:48.368Z,7.87
2019-04-22T23:23:39.536Z,7.27
2019-04-22T23:26:09.179Z,7.37
2019-04-22T23:28:40.106Z,8.03
2019-04-22T23:31:14.321Z,7.77
2019-04-22T23:33:55.958Z,6.47
2019-04-22T23:36:38.338Z,7.00
2019-04-22T23:39:15.788Z,7.60
2019-04-22T23:41:50.467Z,6.73
2019-04-22T23:44:27.538Z,6.73
2019-04-22T23:47:10.948Z,6.67
2019-04-22T23:49:43.037Z,6.90
2019-04-22T23:52:27.111Z,7.00
2019-04-22T23:54:57.137Z,7.90
2019-04-22T23:57:31.345Z,7.33
